sensor_id;sensor_type;location;lat;lon;timestamp;pressure;altitude;pressure_sealevel;temperature;humidity
11077;BME280;5591;42.626;23.380;2022-09-09T00:01:41;94430.03;;;19.54;100.00
11077;BME280;5591;42.626;23.380;2022-09-09T00:04:13;94422.50;;;19.51;100.00
11077;BME280;5591;42.626;23.380;2022-09-09T00:06:45;94417.41;;;19.49;100.00
11077;BME280;5591;42.626;23.380;2022-09-09T00:09:16;94405.75;;;19.39;100.00
11077;BME280;5591;42.626;23.380;2022-09-09T00:11:51;94412.47;;;19.41;100.00
11077;BME280;5591;42.626;23.380;2022-09-09T00:14:25;94406.25;;;19.36;100.00
11077;BME280;5591;42.626;23.380;2022-09-09T00:16:59;94431.50;;;19.10;100.00
11077;BME280;5591;42.626;23.380;2022-09-09T00:19:33;94422.25;;;19.13;100.00
11077;BME280;5591;42.626;23.380;2022-09-09T00:22:14;94426.97;;;19.11;100.00
11077;BME280;5591;42.626;23.380;2022-09-09T00:24:44;94417.72;;;19.13;100.00
11077;BME280;5591;42.626;23.380;2022-09-09T00:27:18;94405.13;;;19.09;100.00
11077;BME280;5591;42.626;23.380;2022-09-09T00:29:52;94407.44;;;19.05;100.00
11077;BME280;5591;42.626;23.380;2022-09-09T00:32:20;94400.75;;;18.91;100.00
11077;BME280;5591;42.626;23.380;2022-09-09T00:34:49;94399.06;;;18.85;100.00
11077;BME280;5591;42.626;23.380;2022-09-09T00:37:19;94397.66;;;18.83;100.00
11077;BME280;5591;42.626;23.380;2022-09-09T00:39:48;94393.03;;;18.78;100.00
11077;BME280;5591;42.626;23.380;2022-09-09T00:42:20;94381.94;;;18.81;100.00
11077;BME280;5591;42.626;23.380;2022-09-09T00:44:58;94390.75;;;18.70;100.00
11077;BME280;5591;42.626;23.380;2022-09-09T00:47:40;94374.78;;;18.70;100.00
11077;BME280;5591;42.626;23.380;2022-09-09T00:50:28;94367.97;;;18.51;100.00
11077;BME280;5591;42.626;23.380;2022-09-09T00:53:05;94356.34;;;18.52;100.00
11077;BME280;5591;42.626;23.380;2022-09-09T00:55:42;94369.25;;;18.60;100.00
11077;BME280;5591;42.626;23.380;2022-09-09T00:58:12;94379.31;;;18.70;100.00
11077;BME280;5591;42.626;23.380;2022-09-09T01:00:43;94380.22;;;18.75;100.00
11077;BME280;5591;42.626;23.380;2022-09-09T01:03:19;94365.66;;;18.55;100.00
11077;BME280;5591;42.626;23.380;2022-09-09T01:05:59;94316.81;;;18.33;100.00
11077;BME280;5591;42.626;23.380;2022-09-09T01:08:38;94367.97;;;18.63;100.00
11077;BME280;5591;42.626;23.380;2022-09-09T01:11:10;94371.09;;;18.71;100.00
11077;BME280;5591;42.626;23.380;2022-09-09T01:13:42;94328.84;;;18.35;100.00
11077;BME280;5591;42.626;23.380;2022-09-09T01:16:14;94379.97;;;18.77;100.00
11077;BME280;5591;42.626;23.380;2022-09-09T01:18:44;94385.84;;;18.79;100.00
11077;BME280;5591;42.626;23.380;2022-09-09T01:21:21;94352.25;;;18.73;100.00
11077;BME280;5591;42.626;23.380;2022-09-09T01:24:13;94370.59;;;18.86;100.00
11077;BME280;5591;42.626;23.380;2022-09-09T01:26:44;94390.47;;;18.83;100.00
11077;BME280;5591;42.626;23.380;2022-09-09T01:29:15;94380.44;;;18.85;100.00
11077;BME280;5591;42.626;23.380;2022-09-09T01:31:52;94374.44;;;18.78;100.00
11077;BME280;5591;42.626;23.380;2022-09-09T01:34:20;94367.72;;;18.76;100.00
11077;BME280;5591;42.626;23.380;2022-09-09T01:36:51;94379.75;;;18.67;100.00
11077;BME280;5591;42.626;23.380;2022-09-09T01:39:20;94379.88;;;18.72;100.00
11077;BME280;5591;42.626;23.380;2022-09-09T01:41:48;94387.41;;;18.63;100.00
11077;BME280;5591;42.626;23.380;2022-09-09T01:44:15;94385.44;;;18.59;100.00
11077;BME280;5591;42.626;23.380;2022-09-09T01:46:43;94383.00;;;18.46;100.00
11077;BME280;5591;42.626;23.380;2022-09-09T01:49:10;94384.19;;;18.50;100.00
11077;BME280;5591;42.626;23.380;2022-09-09T01:51:39;94395.50;;;18.45;100.00
11077;BME280;5591;42.626;23.380;2022-09-09T01:54:07;94394.47;;;18.46;100.00
11077;BME280;5591;42.626;23.380;2022-09-09T01:56:40;94392.59;;;18.47;100.00
11077;BME280;5591;42.626;23.380;2022-09-09T01:59:41;94406.03;;;18.63;100.00
11077;BME280;5591;42.626;23.380;2022-09-09T02:02:15;94407.88;;;18.63;100.00
11077;BME280;5591;42.626;23.380;2022-09-09T02:04:45;94396.53;;;18.56;100.00
11077;BME280;5591;42.626;23.380;2022-09-09T02:07:29;94406.13;;;18.57;100.00
11077;BME280;5591;42.626;23.380;2022-09-09T02:10:03;94401.97;;;18.49;100.00
11077;BME280;5591;42.626;23.380;2022-09-09T02:12:33;94390.41;;;18.55;100.00
11077;BME280;5591;42.626;23.380;2022-09-09T02:15:06;94396.53;;;18.67;100.00
11077;BME280;5591;42.626;23.380;2022-09-09T02:17:36;94399.78;;;18.58;100.00
11077;BME280;5591;42.626;23.380;2022-09-09T02:20:07;94385.78;;;18.62;100.00
11077;BME280;5591;42.626;23.380;2022-09-09T02:22:35;94387.75;;;18.55;100.00
11077;BME280;5591;42.626;23.380;2022-09-09T02:25:07;94400.72;;;18.52;100.00
11077;BME280;5591;42.626;23.380;2022-09-09T02:27:35;94363.00;;;18.55;100.00
11077;BME280;5591;42.626;23.380;2022-09-09T02:30:04;94371.81;;;18.55;100.00
11077;BME280;5591;42.626;23.380;2022-09-09T02:32:32;94374.94;;;18.52;100.00
11077;BME280;5591;42.626;23.380;2022-09-09T02:35:03;94380.13;;;18.47;100.00
11077;BME280;5591;42.626;23.380;2022-09-09T02:37:34;94372.38;;;18.46;100.00
11077;BME280;5591;42.626;23.380;2022-09-09T02:40:02;94383.69;;;18.41;100.00
11077;BME280;5591;42.626;23.380;2022-09-09T02:42:29;94390.88;;;18.29;100.00
11077;BME280;5591;42.626;23.380;2022-09-09T02:44:56;94386.59;;;18.17;100.00
11077;BME280;5591;42.626;23.380;2022-09-09T02:47:31;94393.03;;;18.21;100.00
11077;BME280;5591;42.626;23.380;2022-09-09T02:50:11;94396.16;;;18.18;100.00
11077;BME280;5591;42.626;23.380;2022-09-09T02:52:47;94404.03;;;18.24;100.00
11077;BME280;5591;42.626;23.380;2022-09-09T02:55:24;94408.97;;;18.21;100.00
11077;BME280;5591;42.626;23.380;2022-09-09T02:57:53;94403.19;;;18.24;100.00
11077;BME280;5591;42.626;23.380;2022-09-09T03:00:26;94401.59;;;18.11;100.00
11077;BME280;5591;42.626;23.380;2022-09-09T03:02:55;94395.97;;;18.31;100.00
11077;BME280;5591;42.626;23.380;2022-09-09T03:05:22;94392.25;;;18.20;100.00
11077;BME280;5591;42.626;23.380;2022-09-09T03:07:49;94391.22;;;18.21;100.00
11077;BME280;5591;42.626;23.380;2022-09-09T03:10:16;94402.75;;;18.27;100.00
11077;BME280;5591;42.626;23.380;2022-09-09T03:12:43;94404.50;;;18.21;100.00
11077;BME280;5591;42.626;23.380;2022-09-09T03:15:10;94394.41;;;18.00;100.00
11077;BME280;5591;42.626;23.380;2022-09-09T03:17:37;94393.72;;;17.93;100.00
11077;BME280;5591;42.626;23.380;2022-09-09T03:20:06;94319.06;;;17.61;100.00
11077;BME280;5591;42.626;23.380;2022-09-09T03:22:34;94397.88;;;18.01;100.00
11077;BME280;5591;42.626;23.380;2022-09-09T03:25:00;94394.31;;;18.07;100.00
11077;BME280;5591;42.626;23.380;2022-09-09T03:27:28;94399.41;;;18.20;100.00
11077;BME280;5591;42.626;23.380;2022-09-09T03:29:55;94402.88;;;18.20;100.00
11077;BME280;5591;42.626;23.380;2022-09-09T03:32:23;94394.31;;;18.18;100.00
11077;BME280;5591;42.626;23.380;2022-09-09T03:34:51;94395.69;;;18.21;100.00
11077;BME280;5591;42.626;23.380;2022-09-09T03:37:20;94401.16;;;18.26;100.00
11077;BME280;5591;42.626;23.380;2022-09-09T03:39:48;94400.09;;;18.27;100.00
11077;BME280;5591;42.626;23.380;2022-09-09T03:42:15;94375.69;;;18.18;100.00
11077;BME280;5591;42.626;23.380;2022-09-09T03:44:44;94386.34;;;18.18;100.00
11077;BME280;5591;42.626;23.380;2022-09-09T03:47:15;94393.63;;;18.23;100.00
11077;BME280;5591;42.626;23.380;2022-09-09T03:49:42;94393.63;;;18.11;100.00
11077;BME280;5591;42.626;23.380;2022-09-09T03:52:09;94398.69;;;18.13;100.00
11077;BME280;5591;42.626;23.380;2022-09-09T03:54:38;94402.84;;;18.09;100.00
11077;BME280;5591;42.626;23.380;2022-09-09T03:57:05;94399.41;;;18.20;100.00
11077;BME280;5591;42.626;23.380;2022-09-09T03:59:31;94398.25;;;18.16;100.00
11077;BME280;5591;42.626;23.380;2022-09-09T04:01:58;94395.13;;;18.19;100.00
11077;BME280;5591;42.626;23.380;2022-09-09T04:04:25;94396.28;;;18.11;100.00
11077;BME280;5591;42.626;23.380;2022-09-09T04:06:52;94406.31;;;18.21;100.00
11077;BME280;5591;42.626;23.380;2022-09-09T04:09:19;94407.72;;;18.23;100.00
11077;BME280;5591;42.626;23.380;2022-09-09T04:11:48;94406.31;;;18.21;100.00
11077;BME280;5591;42.626;23.380;2022-09-09T04:14:15;94404.34;;;18.16;100.00
11077;BME280;5591;42.626;23.380;2022-09-09T04:16:42;94417.44;;;18.29;100.00
11077;BME280;5591;42.626;23.380;2022-09-09T04:19:10;94405.63;;;18.25;100.00
11077;BME280;5591;42.626;23.380;2022-09-09T04:21:38;94382.41;;;18.09;100.00
11077;BME280;5591;42.626;23.380;2022-09-09T04:24:06;94401.84;;;18.33;100.00
11077;BME280;5591;42.626;23.380;2022-09-09T04:26:34;94403.13;;;18.30;100.00
11077;BME280;5591;42.626;23.380;2022-09-09T04:29:03;94415.84;;;18.40;100.00
11077;BME280;5591;42.626;23.380;2022-09-09T04:31:30;94393.19;;;18.26;100.00
11077;BME280;5591;42.626;23.380;2022-09-09T04:33:57;94408.69;;;18.29;100.00
11077;BME280;5591;42.626;23.380;2022-09-09T04:36:27;94393.72;;;18.16;100.00
11077;BME280;5591;42.626;23.380;2022-09-09T04:38:54;94412.16;;;18.41;100.00
11077;BME280;5591;42.626;23.380;2022-09-09T04:41:21;94417.81;;;18.44;100.00
11077;BME280;5591;42.626;23.380;2022-09-09T04:43:48;94418.50;;;18.63;100.00
11077;BME280;5591;42.626;23.380;2022-09-09T04:46:16;94419.19;;;18.70;100.00
11077;BME280;5591;42.626;23.380;2022-09-09T04:48:43;94421.16;;;18.74;100.00
11077;BME280;5591;42.626;23.380;2022-09-09T04:51:13;94424.50;;;18.70;100.00
11077;BME280;5591;42.626;23.380;2022-09-09T04:53:40;94412.00;;;18.70;100.00
11077;BME280;5591;42.626;23.380;2022-09-09T04:56:08;94386.59;;;18.51;100.00
11077;BME280;5591;42.626;23.380;2022-09-09T04:58:36;94327.88;;;18.41;100.00
11077;BME280;5591;42.626;23.380;2022-09-09T05:01:05;94392.91;;;18.96;100.00
11077;BME280;5591;42.626;23.380;2022-09-09T05:03:33;94397.00;;;19.15;100.00
11077;BME280;5591;42.626;23.380;2022-09-09T05:06:07;94390.66;;;19.16;100.00
11077;BME280;5591;42.626;23.380;2022-09-09T05:08:35;94385.34;;;19.05;100.00
11077;BME280;5591;42.626;23.380;2022-09-09T05:11:02;94378.84;;;19.12;100.00
11077;BME280;5591;42.626;23.380;2022-09-09T05:13:30;94378.66;;;19.42;100.00
11077;BME280;5591;42.626;23.380;2022-09-09T05:15:57;94384.78;;;19.42;100.00
11077;BME280;5591;42.626;23.380;2022-09-09T05:18:24;94387.97;;;19.56;100.00
11077;BME280;5591;42.626;23.380;2022-09-09T05:20:58;94384.81;;;19.87;100.00
11077;BME280;5591;42.626;23.380;2022-09-09T05:23:25;94396.81;;;20.17;100.00
11077;BME280;5591;42.626;23.380;2022-09-09T05:25:56;94366.34;;;20.30;100.00
11077;BME280;5591;42.626;23.380;2022-09-09T05:28:23;94374.47;;;20.56;100.00
11077;BME280;5591;42.626;23.380;2022-09-09T05:30:57;94370.97;;;20.72;100.00
11077;BME280;5591;42.626;23.380;2022-09-09T05:33:26;94371.78;;;20.72;100.00
11077;BME280;5591;42.626;23.380;2022-09-09T05:35:58;94359.41;;;20.66;100.00
11077;BME280;5591;42.626;23.380;2022-09-09T05:38:24;94384.56;;;21.08;100.00
11077;BME280;5591;42.626;23.380;2022-09-09T05:40:52;94377.03;;;21.27;100.00
11077;BME280;5591;42.626;23.380;2022-09-09T05:43:19;94347.28;;;20.97;100.00
11077;BME280;5591;42.626;23.380;2022-09-09T05:45:46;94375.19;;;21.27;100.00
11077;BME280;5591;42.626;23.380;2022-09-09T05:48:14;94378.81;;;21.43;100.00
11077;BME280;5591;42.626;23.380;2022-09-09T05:50:41;94379.75;;;21.80;100.00
11077;BME280;5591;42.626;23.380;2022-09-09T05:53:10;94401.59;;;21.98;100.00
11077;BME280;5591;42.626;23.380;2022-09-09T05:55:37;94399.91;;;22.19;100.00
11077;BME280;5591;42.626;23.380;2022-09-09T05:58:04;94382.28;;;22.23;100.00
11077;BME280;5591;42.626;23.380;2022-09-09T06:00:30;94377.03;;;22.33;100.00
11077;BME280;5591;42.626;23.380;2022-09-09T06:02:58;94381.72;;;22.47;100.00
11077;BME280;5591;42.626;23.380;2022-09-09T06:05:25;94393.91;;;22.70;100.00
11077;BME280;5591;42.626;23.380;2022-09-09T06:07:54;94396.38;;;22.76;100.00
11077;BME280;5591;42.626;23.380;2022-09-09T06:10:22;94402.91;;;22.95;100.00
11077;BME280;5591;42.626;23.380;2022-09-09T06:12:52;94408.03;;;23.06;100.00
11077;BME280;5591;42.626;23.380;2022-09-09T06:15:20;94404.44;;;23.22;100.00
11077;BME280;5591;42.626;23.380;2022-09-09T06:17:46;94414.59;;;22.79;100.00
11077;BME280;5591;42.626;23.380;2022-09-09T06:20:14;94407.75;;;22.98;100.00
11077;BME280;5591;42.626;23.380;2022-09-09T06:22:41;94407.59;;;23.14;100.00
11077;BME280;5591;42.626;23.380;2022-09-09T06:25:08;94399.84;;;23.18;100.00
11077;BME280;5591;42.626;23.380;2022-09-09T06:27:37;94402.06;;;23.36;100.00
11077;BME280;5591;42.626;23.380;2022-09-09T06:30:05;94407.44;;;23.41;100.00
11077;BME280;5591;42.626;23.380;2022-09-09T06:32:32;94404.03;;;23.55;100.00
11077;BME280;5591;42.626;23.380;2022-09-09T06:35:00;94391.34;;;23.36;100.00
11077;BME280;5591;42.626;23.380;2022-09-09T06:37:28;94402.34;;;23.39;100.00
11077;BME280;5591;42.626;23.380;2022-09-09T06:39:54;94397.63;;;23.66;100.00
11077;BME280;5591;42.626;23.380;2022-09-09T06:42:21;94392.00;;;23.78;100.00
11077;BME280;5591;42.626;23.380;2022-09-09T06:44:50;94397.63;;;23.71;100.00
11077;BME280;5591;42.626;23.380;2022-09-09T06:47:17;94402.97;;;23.71;100.00
11077;BME280;5591;42.626;23.380;2022-09-09T06:49:44;94395.06;;;24.11;99.33
11077;BME280;5591;42.626;23.380;2022-09-09T06:52:11;94393.75;;;24.34;96.75
11077;BME280;5591;42.626;23.380;2022-09-09T06:54:38;94397.75;;;24.51;95.45
11077;BME280;5591;42.626;23.380;2022-09-09T06:57:05;94401.78;;;24.24;95.89
11077;BME280;5591;42.626;23.380;2022-09-09T06:59:32;94410.63;;;24.19;96.39
11077;BME280;5591;42.626;23.380;2022-09-09T07:02:00;94408.22;;;24.53;94.59
11077;BME280;5591;42.626;23.380;2022-09-09T07:04:27;94410.66;;;24.39;95.58
11077;BME280;5591;42.626;23.380;2022-09-09T07:06:54;94410.34;;;24.16;98.71
11077;BME280;5591;42.626;23.380;2022-09-09T07:09:20;94415.44;;;24.07;98.96
11077;BME280;5591;42.626;23.380;2022-09-09T07:11:49;94416.00;;;24.39;97.25
11077;BME280;5591;42.626;23.380;2022-09-09T07:14:18;94414.69;;;24.72;94.00
11077;BME280;5591;42.626;23.380;2022-09-09T07:16:45;94409.56;;;24.75;92.09
11077;BME280;5591;42.626;23.380;2022-09-09T07:19:14;94398.00;;;24.50;94.18
11077;BME280;5591;42.626;23.380;2022-09-09T07:21:41;94399.88;;;24.79;93.23
11077;BME280;5591;42.626;23.380;2022-09-09T07:24:08;94406.00;;;25.15;91.20
11077;BME280;5591;42.626;23.380;2022-09-09T07:26:37;94407.53;;;25.46;89.04
11077;BME280;5591;42.626;23.380;2022-09-09T07:29:04;94402.72;;;25.38;88.10
11077;BME280;5591;42.626;23.380;2022-09-09T07:31:33;94399.28;;;25.22;89.55
11077;BME280;5591;42.626;23.380;2022-09-09T07:34:01;94393.91;;;25.22;90.44
11077;BME280;5591;42.626;23.380;2022-09-09T07:36:30;94398.03;;;25.68;88.11
11077;BME280;5591;42.626;23.380;2022-09-09T07:38:59;94387.72;;;25.90;83.90
11077;BME280;5591;42.626;23.380;2022-09-09T07:41:29;94388.97;;;26.02;82.13
11077;BME280;5591;42.626;23.380;2022-09-09T07:43:57;94394.78;;;26.19;82.08
11077;BME280;5591;42.626;23.380;2022-09-09T07:46:26;94401.97;;;26.34;82.83
11077;BME280;5591;42.626;23.380;2022-09-09T07:48:55;94409.63;;;26.17;79.33
11077;BME280;5591;42.626;23.380;2022-09-09T07:51:24;94397.41;;;25.86;82.66
11077;BME280;5591;42.626;23.380;2022-09-09T07:53:54;94403.88;;;25.22;86.51
11077;BME280;5591;42.626;23.380;2022-09-09T07:56:22;94409.28;;;24.47;91.63
11077;BME280;5591;42.626;23.380;2022-09-09T07:58:51;94404.47;;;24.54;92.52
11077;BME280;5591;42.626;23.380;2022-09-09T08:01:21;94405.00;;;24.91;89.63
11077;BME280;5591;42.626;23.380;2022-09-09T08:03:54;94403.00;;;25.99;83.70
11077;BME280;5591;42.626;23.380;2022-09-09T08:06:25;94393.09;;;26.95;74.57
11077;BME280;5591;42.626;23.380;2022-09-09T08:08:53;94394.91;;;27.33;72.45
11077;BME280;5591;42.626;23.380;2022-09-09T08:11:21;94393.72;;;28.05;66.56
11077;BME280;5591;42.626;23.380;2022-09-09T08:13:49;94387.75;;;28.08;61.96
11077;BME280;5591;42.626;23.380;2022-09-09T08:16:18;94397.75;;;28.07;62.50
11077;BME280;5591;42.626;23.380;2022-09-09T08:18:47;94366.22;;;28.21;60.84
11077;BME280;5591;42.626;23.380;2022-09-09T08:21:17;94403.25;;;27.55;63.88
11077;BME280;5591;42.626;23.380;2022-09-09T08:23:45;94397.53;;;26.14;77.86
11077;BME280;5591;42.626;23.380;2022-09-09T08:26:15;94397.22;;;25.73;79.95
11077;BME280;5591;42.626;23.380;2022-09-09T08:28:43;94403.91;;;26.28;74.53
11077;BME280;5591;42.626;23.380;2022-09-09T08:31:12;94406.19;;;26.45;72.50
11077;BME280;5591;42.626;23.380;2022-09-09T08:33:40;94396.28;;;25.97;76.81
11077;BME280;5591;42.626;23.380;2022-09-09T08:36:10;94399.16;;;26.49;72.48
11077;BME280;5591;42.626;23.380;2022-09-09T08:38:37;94392.53;;;26.98;68.14
11077;BME280;5591;42.626;23.380;2022-09-09T08:41:27;94386.75;;;27.15;67.12
11077;BME280;5591;42.626;23.380;2022-09-09T08:44:02;94400.63;;;27.50;64.95
11077;BME280;5591;42.626;23.380;2022-09-09T08:46:36;94394.69;;;27.72;63.49
11077;BME280;5591;42.626;23.380;2022-09-09T08:49:19;94385.56;;;27.68;63.51
11077;BME280;5591;42.626;23.380;2022-09-09T08:51:48;94390.75;;;28.06;60.95
11077;BME280;5591;42.626;23.380;2022-09-09T08:54:16;94399.06;;;28.97;55.86
11077;BME280;5591;42.626;23.380;2022-09-09T08:56:45;94397.25;;;29.51;53.26
11077;BME280;5591;42.626;23.380;2022-09-09T08:59:17;94378.47;;;29.95;51.29
11077;BME280;5591;42.626;23.380;2022-09-09T09:01:59;94387.25;;;30.50;48.84
11077;BME280;5591;42.626;23.380;2022-09-09T09:04:45;94383.31;;;30.34;48.39
11077;BME280;5591;42.626;23.380;2022-09-09T09:07:26;94381.47;;;30.43;47.90
11077;BME280;5591;42.626;23.380;2022-09-09T09:09:59;94385.81;;;29.81;48.54
11077;BME280;5591;42.626;23.380;2022-09-09T09:12:31;94385.53;;;29.56;50.48
11077;BME280;5591;42.626;23.380;2022-09-09T09:15:02;94373.16;;;29.90;49.54
11077;BME280;5591;42.626;23.380;2022-09-09T09:17:32;94320.69;;;29.64;48.36
11077;BME280;5591;42.626;23.380;2022-09-09T09:20:03;94393.19;;;29.08;51.81
11077;BME280;5591;42.626;23.380;2022-09-09T09:22:37;94382.00;;;28.83;53.88
11077;BME280;5591;42.626;23.380;2022-09-09T09:25:12;94378.53;;;29.55;52.08
11077;BME280;5591;42.626;23.380;2022-09-09T09:27:49;94373.44;;;30.16;50.65
11077;BME280;5591;42.626;23.380;2022-09-09T09:30:22;94377.69;;;30.66;47.24
11077;BME280;5591;42.626;23.380;2022-09-09T09:32:53;94381.00;;;31.07;46.40
11077;BME280;5591;42.626;23.380;2022-09-09T09:35:20;94379.00;;;30.68;46.06
11077;BME280;5591;42.626;23.380;2022-09-09T09:37:48;94380.28;;;31.15;45.25
11077;BME280;5591;42.626;23.380;2022-09-09T09:40:17;94380.91;;;30.54;45.85
11077;BME280;5591;42.626;23.380;2022-09-09T09:42:53;94382.09;;;31.06;46.01
11077;BME280;5591;42.626;23.380;2022-09-09T09:45:27;94372.13;;;31.53;44.29
11077;BME280;5591;42.626;23.380;2022-09-09T09:48:01;94301.66;;;30.71;45.29
11077;BME280;5591;42.626;23.380;2022-09-09T09:50:29;94359.47;;;31.41;44.43
11077;BME280;5591;42.626;23.380;2022-09-09T09:52:58;94353.09;;;32.01;42.98
11077;BME280;5591;42.626;23.380;2022-09-09T09:55:26;94331.94;;;31.64;43.23
11077;BME280;5591;42.626;23.380;2022-09-09T09:58:02;94339.25;;;31.55;43.92
11077;BME280;5591;42.626;23.380;2022-09-09T10:00:30;94354.28;;;32.25;43.26
11077;BME280;5591;42.626;23.380;2022-09-09T10:02:59;94352.00;;;32.19;43.31
11077;BME280;5591;42.626;23.380;2022-09-09T10:05:28;94332.19;;;32.86;43.56
11077;BME280;5591;42.626;23.380;2022-09-09T10:08:03;94327.53;;;32.87;41.90
11077;BME280;5591;42.626;23.380;2022-09-09T10:10:40;94284.09;;;32.27;41.60
11077;BME280;5591;42.626;23.380;2022-09-09T10:13:16;94352.94;;;31.97;42.40
11077;BME280;5591;42.626;23.380;2022-09-09T10:15:52;94356.56;;;31.37;44.08
11077;BME280;5591;42.626;23.380;2022-09-09T10:18:41;94354.59;;;30.68;46.41
11077;BME280;5591;42.626;23.380;2022-09-09T10:21:20;94372.44;;;29.98;48.08
11077;BME280;5591;42.626;23.380;2022-09-09T10:24:05;94366.59;;;29.56;50.55
11077;BME280;5591;42.626;23.380;2022-09-09T10:26:41;94366.00;;;29.59;51.38
11077;BME280;5591;42.626;23.380;2022-09-09T10:29:27;94371.47;;;29.40;54.12
11077;BME280;5591;42.626;23.380;2022-09-09T10:32:07;94382.28;;;28.50;57.74
11077;BME280;5591;42.626;23.380;2022-09-09T10:34:50;94373.38;;;28.12;61.88
11077;BME280;5591;42.626;23.380;2022-09-09T10:37:28;94368.88;;;28.76;59.80
11077;BME280;5591;42.626;23.380;2022-09-09T10:40:02;94367.88;;;28.54;60.15
11077;BME280;5591;42.626;23.380;2022-09-09T10:42:31;94368.50;;;27.72;65.57
11077;BME280;5591;42.626;23.380;2022-09-09T10:45:11;94374.06;;;27.39;69.31
11077;BME280;5591;42.626;23.380;2022-09-09T10:47:57;94373.72;;;27.22;72.21
11077;BME280;5591;42.626;23.380;2022-09-09T10:50:39;94372.16;;;27.63;70.95
11077;BME280;5591;42.626;23.380;2022-09-09T10:53:14;94377.38;;;27.54;70.44
11077;BME280;5591;42.626;23.380;2022-09-09T10:55:44;94377.06;;;27.09;75.13
11077;BME280;5591;42.626;23.380;2022-09-09T10:58:14;94374.84;;;27.39;72.15
11077;BME280;5591;42.626;23.380;2022-09-09T11:00:47;94362.31;;;27.30;72.34
11077;BME280;5591;42.626;23.380;2022-09-09T11:03:19;94368.84;;;26.95;75.74
11077;BME280;5591;42.626;23.380;2022-09-09T11:05:49;94369.78;;;26.86;78.56
11077;BME280;5591;42.626;23.380;2022-09-09T11:08:19;94376.88;;;26.72;78.26
11077;BME280;5591;42.626;23.380;2022-09-09T11:10:51;94379.38;;;26.68;79.23
11077;BME280;5591;42.626;23.380;2022-09-09T11:13:24;94377.56;;;27.16;75.16
11077;BME280;5591;42.626;23.380;2022-09-09T11:16:01;94369.06;;;27.51;71.57
11077;BME280;5591;42.626;23.380;2022-09-09T11:18:35;94372.38;;;27.66;69.76
11077;BME280;5591;42.626;23.380;2022-09-09T11:21:09;94376.16;;;28.07;66.71
11077;BME280;5591;42.626;23.380;2022-09-09T11:23:40;94370.03;;;28.02;66.21
11077;BME280;5591;42.626;23.380;2022-09-09T11:26:15;94366.88;;;28.82;61.88
11077;BME280;5591;42.626;23.380;2022-09-09T11:28:55;94336.44;;;28.90;59.81
11077;BME280;5591;42.626;23.380;2022-09-09T11:31:41;94357.47;;;29.52;57.61
11077;BME280;5591;42.626;23.380;2022-09-09T11:34:21;94344.53;;;30.11;55.52
11077;BME280;5591;42.626;23.380;2022-09-09T11:37:06;94327.81;;;28.74;61.54
11077;BME280;5591;42.626;23.380;2022-09-09T11:39:48;94333.19;;;28.93;61.75
11077;BME280;5591;42.626;23.380;2022-09-09T11:42:19;94321.97;;;29.26;59.37
11077;BME280;5591;42.626;23.380;2022-09-09T11:44:46;94329.00;;;28.37;64.32
11077;BME280;5591;42.626;23.380;2022-09-09T11:47:23;94328.59;;;29.07;60.22
11077;BME280;5591;42.626;23.380;2022-09-09T11:49:55;94315.50;;;28.68;62.88
11077;BME280;5591;42.626;23.380;2022-09-09T11:52:23;94296.72;;;29.31;59.80
11077;BME280;5591;42.626;23.380;2022-09-09T11:54:54;94297.09;;;30.00;56.86
11077;BME280;5591;42.626;23.380;2022-09-09T11:57:29;94282.41;;;30.59;54.98
11077;BME280;5591;42.626;23.380;2022-09-09T11:59:57;94207.75;;;29.78;55.26
11077;BME280;5591;42.626;23.380;2022-09-09T12:02:28;94282.97;;;30.03;58.16
11077;BME280;5591;42.626;23.380;2022-09-09T12:04:59;94293.59;;;30.57;55.33
11077;BME280;5591;42.626;23.380;2022-09-09T12:07:36;94294.97;;;29.89;57.90
11077;BME280;5591;42.626;23.380;2022-09-09T12:10:18;94297.72;;;29.97;57.04
11077;BME280;5591;42.626;23.380;2022-09-09T12:12:46;94293.31;;;29.66;57.56
11077;BME280;5591;42.626;23.380;2022-09-09T12:15:26;94307.66;;;29.53;59.35
11077;BME280;5591;42.626;23.380;2022-09-09T12:17:57;94266.78;;;29.90;57.53
11077;BME280;5591;42.626;23.380;2022-09-09T12:20:31;94280.41;;;30.64;53.25
11077;BME280;5591;42.626;23.380;2022-09-09T12:23:12;94269.06;;;31.32;51.71
11077;BME280;5591;42.626;23.380;2022-09-09T12:25:53;94269.91;;;31.49;50.14
11077;BME280;5591;42.626;23.380;2022-09-09T12:28:26;94274.72;;;31.52;49.89
11077;BME280;5591;42.626;23.380;2022-09-09T12:31:04;94266.19;;;30.37;52.93
11077;BME280;5591;42.626;23.380;2022-09-09T12:33:36;94269.38;;;30.61;52.10
11077;BME280;5591;42.626;23.380;2022-09-09T12:36:04;94257.31;;;30.45;52.06
11077;BME280;5591;42.626;23.380;2022-09-09T12:38:35;94255.22;;;30.42;52.71
11077;BME280;5591;42.626;23.380;2022-09-09T12:41:03;94251.00;;;31.19;50.23
11077;BME280;5591;42.626;23.380;2022-09-09T12:43:30;94252.09;;;30.79;52.05
11077;BME280;5591;42.626;23.380;2022-09-09T12:45:59;94251.53;;;30.90;52.05
11077;BME280;5591;42.626;23.380;2022-09-09T12:48:32;94251.09;;;31.61;49.62
11077;BME280;5591;42.626;23.380;2022-09-09T12:51:18;94254.44;;;31.58;47.97
11077;BME280;5591;42.626;23.380;2022-09-09T12:53:46;94247.03;;;30.33;52.69
11077;BME280;5591;42.626;23.380;2022-09-09T12:56:19;94260.34;;;30.21;54.78
11077;BME280;5591;42.626;23.380;2022-09-09T12:58:48;94248.06;;;30.46;53.60
11077;BME280;5591;42.626;23.380;2022-09-09T13:01:21;94244.06;;;31.60;49.57
11077;BME280;5591;42.626;23.380;2022-09-09T13:03:48;94241.66;;;32.77;46.28
11077;BME280;5591;42.626;23.380;2022-09-09T13:06:21;94226.88;;;34.03;43.01
11077;BME280;5591;42.626;23.380;2022-09-09T13:08:48;94224.31;;;34.18;42.48
11077;BME280;5591;42.626;23.380;2022-09-09T13:11:17;94226.78;;;34.11;42.17
11077;BME280;5591;42.626;23.380;2022-09-09T13:13:51;94174.56;;;34.42;40.86
11077;BME280;5591;42.626;23.380;2022-09-09T13:16:20;94208.25;;;34.05;41.19